Pagrindinis puslapis
METAR-TAF:

METAR-TAF

Oro uostai :

Lapenranta, Suomija

platuma: 61-02-45N, ilguma: 028-08-55E, Aukštis: 106 m

Dabartinis oras

Ataskaita buvo paskelbta 43 minutes, ne 02:20 UTC
Vėjas 7 kt iš Pietų, svyruoja nuo Pietryčių ir Pietvakarių
Temperatūra 0°C
Drėgmė 93%
Slėgis 1007 hPa
Matomumas 10 km arba daugiau
Apsiniaukę ne aukštis 600 ft

METAR: EFLP 210220Z AUTO 18007KT 140V230 9999 OVC006 00/M01 Q1007

Laikas: 05:03 (03:03 UTC)

Prognozė

Ataskaita buvo paskelbta 26 minutes, ne 02:37 UTC
Prognozė galioja nuo 21 metu 03 UTC su 21 metu 11 UTC
Vėjas 10 kt iš Pietų
Matomumas 10 km arba daugiau
Su prošvaistėmis ne aukštis 600 ft
Laikinai
nuo 21 metu 03 UTC su 21 metu 07 UTC
Su prošvaistėmis ne aukštis 1000 ft
Tapsmas
nuo 21 metu 08 UTC su 21 metu 10 UTC
Vėjas 15 kt iš Pietų/Pietryčių su gūsio iki 27 kt
Matomumas: 3000 m
sniegas, lietus

TAF: EFLP 210237Z 2103/2111 18010KT 9999 BKN006 TEMPO 2103/2107 BKN010 BECMG 2108/2110 16015G27KT 3000 -SNRA

Orai ataskaitas ir orų prognozės (METAR, TAF).

turimą stotys yra geltonos ir raudonos taškus žemėlapyje.

Perkelti pele per norėdami pamatyti stoties vardą.

Tada spustelėkite, norėdami matyti oro stebėjimo ir prognozės.

Norėdami pakeisti žemėlapį: spustelėkite ant žalios mygtukų su juodo kryžiaus žemyn,; žalią mygtuką su brūkšneliu, jei norite nutolinti; arba žalių rodyklių gretimoms žemėlapius.


METAR-TAF: